sensor_id;sensor_type;location;lat;lon;timestamp;temperature;humidity
6738;DHT22;3406;49.902;8.596;2023-03-02T00:01:20;2.60;56.20
6738;DHT22;3406;49.902;8.596;2023-03-02T00:03:48;2.60;56.20
6738;DHT22;3406;49.902;8.596;2023-03-02T00:06:16;2.50;56.10
6738;DHT22;3406;49.902;8.596;2023-03-02T00:08:44;2.50;56.20
6738;DHT22;3406;49.902;8.596;2023-03-02T00:11:11;2.50;56.20
6738;DHT22;3406;49.902;8.596;2023-03-02T00:13:40;2.50;56.20
6738;DHT22;3406;49.902;8.596;2023-03-02T00:16:07;2.50;56.20
6738;DHT22;3406;49.902;8.596;2023-03-02T00:18:33;2.50;56.30
6738;DHT22;3406;49.902;8.596;2023-03-02T00:21:00;2.50;56.30
6738;DHT22;3406;49.902;8.596;2023-03-02T00:23:28;2.40;56.20
6738;DHT22;3406;49.902;8.596;2023-03-02T00:25:55;2.40;56.30
6738;DHT22;3406;49.902;8.596;2023-03-02T00:28:21;2.40;56.30
6738;DHT22;3406;49.902;8.596;2023-03-02T00:30:48;2.40;56.40
6738;DHT22;3406;49.902;8.596;2023-03-02T00:33:15;2.30;56.40
6738;DHT22;3406;49.902;8.596;2023-03-02T00:35:41;2.30;56.40
6738;DHT22;3406;49.902;8.596;2023-03-02T00:38:08;2.20;56.40
6738;DHT22;3406;49.902;8.596;2023-03-02T00:40:36;2.30;56.60
6738;DHT22;3406;49.902;8.596;2023-03-02T00:43:03;2.20;56.50
6738;DHT22;3406;49.902;8.596;2023-03-02T00:45:29;2.20;56.60
6738;DHT22;3406;49.902;8.596;2023-03-02T00:47:56;2.20;56.50
6738;DHT22;3406;49.902;8.596;2023-03-02T00:50:23;2.20;56.60
6738;DHT22;3406;49.902;8.596;2023-03-02T00:52:49;2.20;56.60
6738;DHT22;3406;49.902;8.596;2023-03-02T00:55:16;2.10;56.60
6738;DHT22;3406;49.902;8.596;2023-03-02T00:57:44;2.10;56.70
6738;DHT22;3406;49.902;8.596;2023-03-02T01:00:19;2.10;56.70
6738;DHT22;3406;49.902;8.596;2023-03-02T01:02:46;2.00;56.80
6738;DHT22;3406;49.902;8.596;2023-03-02T01:05:13;2.00;56.80
6738;DHT22;3406;49.902;8.596;2023-03-02T01:07:39;2.00;56.90
6738;DHT22;3406;49.902;8.596;2023-03-02T01:10:07;2.00;56.90
6738;DHT22;3406;49.902;8.596;2023-03-02T01:12:34;2.00;57.00
6738;DHT22;3406;49.902;8.596;2023-03-02T01:15:03;2.00;57.00
6738;DHT22;3406;49.902;8.596;2023-03-02T01:17:30;2.00;57.10
6738;DHT22;3406;49.902;8.596;2023-03-02T01:19:56;2.00;57.10
6738;DHT22;3406;49.902;8.596;2023-03-02T01:22:23;1.90;57.10
6738;DHT22;3406;49.902;8.596;2023-03-02T01:24:50;2.00;57.20
6738;DHT22;3406;49.902;8.596;2023-03-02T01:27:17;1.90;57.00
6738;DHT22;3406;49.902;8.596;2023-03-02T01:29:44;2.00;57.10
6738;DHT22;3406;49.902;8.596;2023-03-02T01:32:12;1.90;57.10
6738;DHT22;3406;49.902;8.596;2023-03-02T01:34:39;2.00;57.20
6738;DHT22;3406;49.902;8.596;2023-03-02T01:37:05;1.90;57.20
6738;DHT22;3406;49.902;8.596;2023-03-02T01:39:32;1.90;57.20
6738;DHT22;3406;49.902;8.596;2023-03-02T01:41:59;1.90;57.20
6738;DHT22;3406;49.902;8.596;2023-03-02T01:44:37;1.90;57.30
6738;DHT22;3406;49.902;8.596;2023-03-02T01:47:10;1.90;57.40
6738;DHT22;3406;49.902;8.596;2023-03-02T01:49:42;1.80;57.40
6738;DHT22;3406;49.902;8.596;2023-03-02T01:52:10;1.80;57.40
6738;DHT22;3406;49.902;8.596;2023-03-02T01:54:38;1.80;57.50
6738;DHT22;3406;49.902;8.596;2023-03-02T01:57:06;1.80;57.40
6738;DHT22;3406;49.902;8.596;2023-03-02T01:59:36;1.80;57.50
6738;DHT22;3406;49.902;8.596;2023-03-02T02:02:07;1.70;57.50
6738;DHT22;3406;49.902;8.596;2023-03-02T02:04:36;1.70;57.50
6738;DHT22;3406;49.902;8.596;2023-03-02T02:07:07;1.70;57.60
6738;DHT22;3406;49.902;8.596;2023-03-02T02:09:38;1.70;57.60
6738;DHT22;3406;49.902;8.596;2023-03-02T02:12:05;1.70;57.70
6738;DHT22;3406;49.902;8.596;2023-03-02T02:14:32;1.60;57.70
6738;DHT22;3406;49.902;8.596;2023-03-02T02:16:59;1.60;57.70
6738;DHT22;3406;49.902;8.596;2023-03-02T02:19:37;1.60;57.80
6738;DHT22;3406;49.902;8.596;2023-03-02T02:22:08;1.60;57.80
6738;DHT22;3406;49.902;8.596;2023-03-02T02:24:40;1.60;57.90
6738;DHT22;3406;49.902;8.596;2023-03-02T02:27:09;1.50;57.90
6738;DHT22;3406;49.902;8.596;2023-03-02T02:29:38;1.50;58.50
6738;DHT22;3406;49.902;8.596;2023-03-02T02:32:13;1.50;58.00
6738;DHT22;3406;49.902;8.596;2023-03-02T02:34:44;1.50;58.00
6738;DHT22;3406;49.902;8.596;2023-03-02T02:37:14;1.50;58.10
6738;DHT22;3406;49.902;8.596;2023-03-02T02:39:44;1.40;58.00
6738;DHT22;3406;49.902;8.596;2023-03-02T02:42:15;1.40;58.10
6738;DHT22;3406;49.902;8.596;2023-03-02T02:44:43;1.40;58.20
6738;DHT22;3406;49.902;8.596;2023-03-02T02:47:15;1.40;58.20
6738;DHT22;3406;49.902;8.596;2023-03-02T02:49:43;1.30;58.30
6738;DHT22;3406;49.902;8.596;2023-03-02T02:52:13;1.30;58.30
6738;DHT22;3406;49.902;8.596;2023-03-02T02:54:42;1.30;58.40
6738;DHT22;3406;49.902;8.596;2023-03-02T02:57:12;1.30;58.50
6738;DHT22;3406;49.902;8.596;2023-03-02T02:59:45;1.30;58.50
6738;DHT22;3406;49.902;8.596;2023-03-02T03:02:16;1.30;58.60
6738;DHT22;3406;49.902;8.596;2023-03-02T03:04:43;1.20;58.60
6738;DHT22;3406;49.902;8.596;2023-03-02T03:07:19;1.20;58.70
6738;DHT22;3406;49.902;8.596;2023-03-02T03:13:10;1.20;58.80
6738;DHT22;3406;49.902;8.596;2023-03-02T03:15:37;1.20;58.80
6738;DHT22;3406;49.902;8.596;2023-03-02T03:18:04;1.20;58.90
6738;DHT22;3406;49.902;8.596;2023-03-02T03:20:31;1.20;58.90
6738;DHT22;3406;49.902;8.596;2023-03-02T03:22:57;1.20;58.90
6738;DHT22;3406;49.902;8.596;2023-03-02T03:25:25;1.20;59.00
6738;DHT22;3406;49.902;8.596;2023-03-02T03:27:52;1.20;59.00
6738;DHT22;3406;49.902;8.596;2023-03-02T03:30:20;1.20;59.00
6738;DHT22;3406;49.902;8.596;2023-03-02T03:32:47;1.20;59.60
6738;DHT22;3406;49.902;8.596;2023-03-02T03:35:14;1.20;59.10
6738;DHT22;3406;49.902;8.596;2023-03-02T03:37:41;1.20;59.10
6738;DHT22;3406;49.902;8.596;2023-03-02T03:40:08;1.20;59.10
6738;DHT22;3406;49.902;8.596;2023-03-02T03:42:37;1.20;59.20
6738;DHT22;3406;49.902;8.596;2023-03-02T03:45:05;1.20;59.20
6738;DHT22;3406;49.902;8.596;2023-03-02T03:47:34;1.20;59.20
6738;DHT22;3406;49.902;8.596;2023-03-02T03:50:01;1.20;59.20
6738;DHT22;3406;49.902;8.596;2023-03-02T03:52:27;1.20;59.30
6738;DHT22;3406;49.902;8.596;2023-03-02T03:54:56;1.20;59.20
6738;DHT22;3406;49.902;8.596;2023-03-02T03:57:23;1.20;59.30
6738;DHT22;3406;49.902;8.596;2023-03-02T03:59:49;1.20;59.20
6738;DHT22;3406;49.902;8.596;2023-03-02T04:02:16;1.20;59.20
6738;DHT22;3406;49.902;8.596;2023-03-02T04:04:44;1.10;59.20
6738;DHT22;3406;49.902;8.596;2023-03-02T04:07:12;1.10;59.20
6738;DHT22;3406;49.902;8.596;2023-03-02T04:09:39;1.10;59.30
6738;DHT22;3406;49.902;8.596;2023-03-02T04:12:06;1.00;59.30
6738;DHT22;3406;49.902;8.596;2023-03-02T04:14:34;1.00;59.30
6738;DHT22;3406;49.902;8.596;2023-03-02T04:17:01;1.00;59.40
6738;DHT22;3406;49.902;8.596;2023-03-02T04:19:29;1.00;59.50
6738;DHT22;3406;49.902;8.596;2023-03-02T04:21:57;0.90;59.40
6738;DHT22;3406;49.902;8.596;2023-03-02T04:24:26;0.90;59.50
6738;DHT22;3406;49.902;8.596;2023-03-02T04:26:52;0.90;59.60
6738;DHT22;3406;49.902;8.596;2023-03-02T04:29:19;0.90;59.60
6738;DHT22;3406;49.902;8.596;2023-03-02T04:31:46;0.90;59.70
6738;DHT22;3406;49.902;8.596;2023-03-02T04:34:13;0.90;59.70
6738;DHT22;3406;49.902;8.596;2023-03-02T04:36:39;0.80;59.70
6738;DHT22;3406;49.902;8.596;2023-03-02T04:39:09;0.80;59.80
6738;DHT22;3406;49.902;8.596;2023-03-02T04:41:36;0.80;59.80
6738;DHT22;3406;49.902;8.596;2023-03-02T04:44:03;0.80;59.90
6738;DHT22;3406;49.902;8.596;2023-03-02T04:46:29;0.80;59.90
6738;DHT22;3406;49.902;8.596;2023-03-02T04:48:57;0.80;59.90
6738;DHT22;3406;49.902;8.596;2023-03-02T04:51:26;0.90;60.10
6738;DHT22;3406;49.902;8.596;2023-03-02T04:53:55;0.80;60.10
6738;DHT22;3406;49.902;8.596;2023-03-02T04:56:24;0.80;60.10
6738;DHT22;3406;49.902;8.596;2023-03-02T04:58:52;0.90;60.30
6738;DHT22;3406;49.902;8.596;2023-03-02T05:01:19;0.80;60.20
6738;DHT22;3406;49.902;8.596;2023-03-02T05:03:46;0.80;60.30
6738;DHT22;3406;49.902;8.596;2023-03-02T05:06:13;0.80;60.30
6738;DHT22;3406;49.902;8.596;2023-03-02T05:08:41;0.90;60.50
6738;DHT22;3406;49.902;8.596;2023-03-02T05:11:09;0.90;60.50
6738;DHT22;3406;49.902;8.596;2023-03-02T05:13:37;0.80;60.60
6738;DHT22;3406;49.902;8.596;2023-03-02T05:16:04;0.90;60.60
6738;DHT22;3406;49.902;8.596;2023-03-02T05:18:31;0.90;60.60
6738;DHT22;3406;49.902;8.596;2023-03-02T05:20:57;0.90;60.60
6738;DHT22;3406;49.902;8.596;2023-03-02T05:23:24;0.90;60.60
6738;DHT22;3406;49.902;8.596;2023-03-02T05:25:54;0.90;60.60
6738;DHT22;3406;49.902;8.596;2023-03-02T05:28:22;0.90;60.60
6738;DHT22;3406;49.902;8.596;2023-03-02T05:30:51;0.90;60.70
6738;DHT22;3406;49.902;8.596;2023-03-02T05:33:19;0.90;60.80
6738;DHT22;3406;49.902;8.596;2023-03-02T05:35:46;0.80;60.80
6738;DHT22;3406;49.902;8.596;2023-03-02T05:38:13;0.80;60.90
6738;DHT22;3406;49.902;8.596;2023-03-02T05:40:40;0.80;60.90
6738;DHT22;3406;49.902;8.596;2023-03-02T05:43:08;0.80;60.90
6738;DHT22;3406;49.902;8.596;2023-03-02T05:45:36;0.80;61.00
6738;DHT22;3406;49.902;8.596;2023-03-02T05:48:05;0.80;61.10
6738;DHT22;3406;49.902;8.596;2023-03-02T05:50:32;0.80;61.10
6738;DHT22;3406;49.902;8.596;2023-03-02T05:52:59;0.80;61.10
6738;DHT22;3406;49.902;8.596;2023-03-02T05:55:27;0.80;61.20
6738;DHT22;3406;49.902;8.596;2023-03-02T05:57:53;0.80;61.30
6738;DHT22;3406;49.902;8.596;2023-03-02T06:00:21;0.80;61.30
6738;DHT22;3406;49.902;8.596;2023-03-02T06:02:48;0.80;61.40
6738;DHT22;3406;49.902;8.596;2023-03-02T06:05:17;0.80;61.40
6738;DHT22;3406;49.902;8.596;2023-03-02T06:07:45;0.80;61.40
6738;DHT22;3406;49.902;8.596;2023-03-02T06:10:12;0.80;61.40
6738;DHT22;3406;49.902;8.596;2023-03-02T06:12:39;0.70;61.40
6738;DHT22;3406;49.902;8.596;2023-03-02T06:15:07;0.80;61.50
6738;DHT22;3406;49.902;8.596;2023-03-02T06:17:34;0.70;61.40
6738;DHT22;3406;49.902;8.596;2023-03-02T06:20:01;0.70;61.40
6738;DHT22;3406;49.902;8.596;2023-03-02T06:22:33;0.80;61.60
6738;DHT22;3406;49.902;8.596;2023-03-02T06:25:00;0.80;61.60
6738;DHT22;3406;49.902;8.596;2023-03-02T06:27:26;0.80;61.60
6738;DHT22;3406;49.902;8.596;2023-03-02T06:29:53;0.80;61.60
6738;DHT22;3406;49.902;8.596;2023-03-02T06:32:20;0.80;61.60
6738;DHT22;3406;49.902;8.596;2023-03-02T06:34:46;0.90;61.70
6738;DHT22;3406;49.902;8.596;2023-03-02T06:37:13;0.90;61.70
6738;DHT22;3406;49.902;8.596;2023-03-02T06:39:41;0.90;61.60
6738;DHT22;3406;49.902;8.596;2023-03-02T06:42:08;1.00;61.60
6738;DHT22;3406;49.902;8.596;2023-03-02T06:44:34;1.00;61.60
6738;DHT22;3406;49.902;8.596;2023-03-02T06:47:01;1.00;61.60
6738;DHT22;3406;49.902;8.596;2023-03-02T06:49:27;1.00;61.60
6738;DHT22;3406;49.902;8.596;2023-03-02T06:51:54;1.10;61.60
6738;DHT22;3406;49.902;8.596;2023-03-02T06:54:21;1.10;61.60
6738;DHT22;3406;49.902;8.596;2023-03-02T06:56:49;1.10;61.60
6738;DHT22;3406;49.902;8.596;2023-03-02T06:59:15;1.20;61.60
6738;DHT22;3406;49.902;8.596;2023-03-02T07:01:42;1.20;61.60
6738;DHT22;3406;49.902;8.596;2023-03-02T07:04:09;1.20;61.60
6738;DHT22;3406;49.902;8.596;2023-03-02T07:06:35;1.20;61.50
6738;DHT22;3406;49.902;8.596;2023-03-02T07:09:02;1.30;61.50
6738;DHT22;3406;49.902;8.596;2023-03-02T07:11:29;1.30;61.50
6738;DHT22;3406;49.902;8.596;2023-03-02T07:13:58;1.40;61.50
6738;DHT22;3406;49.902;8.596;2023-03-02T07:16:25;1.40;61.40
6738;DHT22;3406;49.902;8.596;2023-03-02T07:18:51;1.50;61.40
6738;DHT22;3406;49.902;8.596;2023-03-02T07:21:18;1.50;61.20
6738;DHT22;3406;49.902;8.596;2023-03-02T07:23:45;1.60;61.20
6738;DHT22;3406;49.902;8.596;2023-03-02T07:26:11;1.70;61.20
6738;DHT22;3406;49.902;8.596;2023-03-02T07:28:39;1.70;61.10
6738;DHT22;3406;49.902;8.596;2023-03-02T07:31:08;1.80;61.10
6738;DHT22;3406;49.902;8.596;2023-03-02T07:33:35;1.70;60.80
6738;DHT22;3406;49.902;8.596;2023-03-02T07:36:01;1.90;60.90
6738;DHT22;3406;49.902;8.596;2023-03-02T07:38:28;2.00;60.80
6738;DHT22;3406;49.902;8.596;2023-03-02T07:40:55;2.00;60.60
6738;DHT22;3406;49.902;8.596;2023-03-02T07:43:21;2.10;61.30
6738;DHT22;3406;49.902;8.596;2023-03-02T07:45:50;2.20;60.50
6738;DHT22;3406;49.902;8.596;2023-03-02T07:48:18;2.30;60.30
6738;DHT22;3406;49.902;8.596;2023-03-02T07:50:47;2.30;60.20
6738;DHT22;3406;49.902;8.596;2023-03-02T07:53:14;2.40;60.10
6738;DHT22;3406;49.902;8.596;2023-03-02T07:55:40;2.50;60.00
6738;DHT22;3406;49.902;8.596;2023-03-02T07:58:07;2.60;59.90
6738;DHT22;3406;49.902;8.596;2023-03-02T08:00:34;2.70;59.70
6738;DHT22;3406;49.902;8.596;2023-03-02T08:03:01;2.80;59.60
6738;DHT22;3406;49.902;8.596;2023-03-02T08:05:29;2.80;59.40
6738;DHT22;3406;49.902;8.596;2023-03-02T08:07:56;2.90;59.40
6738;DHT22;3406;49.902;8.596;2023-03-02T08:10:23;3.00;59.20
6738;DHT22;3406;49.902;8.596;2023-03-02T08:12:49;3.10;59.00
6738;DHT22;3406;49.902;8.596;2023-03-02T08:15:16;3.20;58.90
6738;DHT22;3406;49.902;8.596;2023-03-02T08:17:43;3.20;58.70
6738;DHT22;3406;49.902;8.596;2023-03-02T08:20:10;3.30;58.60
6738;DHT22;3406;49.902;8.596;2023-03-02T08:22:38;3.40;58.40
6738;DHT22;3406;49.902;8.596;2023-03-02T08:25:06;3.50;58.40
6738;DHT22;3406;49.902;8.596;2023-03-02T08:27:33;3.60;58.30
6738;DHT22;3406;49.902;8.596;2023-03-02T08:29:59;3.70;58.20
6738;DHT22;3406;49.902;8.596;2023-03-02T08:32:26;3.80;58.10
6738;DHT22;3406;49.902;8.596;2023-03-02T08:34:53;3.90;58.00
6738;DHT22;3406;49.902;8.596;2023-03-02T08:37:19;3.90;57.70
6738;DHT22;3406;49.902;8.596;2023-03-02T08:39:48;4.00;57.60
6738;DHT22;3406;49.902;8.596;2023-03-02T08:42:14;4.10;57.50
6738;DHT22;3406;49.902;8.596;2023-03-02T08:44:42;4.10;57.40
6738;DHT22;3406;49.902;8.596;2023-03-02T08:47:09;4.20;57.30
6738;DHT22;3406;49.902;8.596;2023-03-02T08:49:35;4.40;57.30
6738;DHT22;3406;49.902;8.596;2023-03-02T08:52:02;4.50;57.30
6738;DHT22;3406;49.902;8.596;2023-03-02T08:54:29;4.50;57.00
6738;DHT22;3406;49.902;8.596;2023-03-02T08:56:58;4.60;56.80
6738;DHT22;3406;49.902;8.596;2023-03-02T08:59:25;4.70;56.70
6738;DHT22;3406;49.902;8.596;2023-03-02T09:01:52;4.70;56.60
6738;DHT22;3406;49.902;8.596;2023-03-02T09:04:18;4.80;56.50
6738;DHT22;3406;49.902;8.596;2023-03-02T09:06:45;4.90;56.50
6738;DHT22;3406;49.902;8.596;2023-03-02T09:09:13;4.90;56.40
6738;DHT22;3406;49.902;8.596;2023-03-02T09:11:41;5.00;56.30
6738;DHT22;3406;49.902;8.596;2023-03-02T09:14:09;5.10;56.30
6738;DHT22;3406;49.902;8.596;2023-03-02T09:16:36;5.20;56.10
6738;DHT22;3406;49.902;8.596;2023-03-02T09:19:02;5.30;56.00
6738;DHT22;3406;49.902;8.596;2023-03-02T09:21:29;5.30;55.90
6738;DHT22;3406;49.902;8.596;2023-03-02T09:23:56;5.40;55.90
6738;DHT22;3406;49.902;8.596;2023-03-02T09:26:23;5.50;55.90
6738;DHT22;3406;49.902;8.596;2023-03-02T09:28:50;5.60;55.80
6738;DHT22;3406;49.902;8.596;2023-03-02T09:31:18;5.70;55.60
6738;DHT22;3406;49.902;8.596;2023-03-02T09:33:45;5.80;55.50
6738;DHT22;3406;49.902;8.596;2023-03-02T09:36:17;5.90;55.50
6738;DHT22;3406;49.902;8.596;2023-03-02T09:38:44;5.90;55.40
6738;DHT22;3406;49.902;8.596;2023-03-02T09:41:24;6.00;55.20
6738;DHT22;3406;49.902;8.596;2023-03-02T09:44:01;6.10;55.20
6738;DHT22;3406;49.902;8.596;2023-03-02T09:46:39;6.10;55.00
6738;DHT22;3406;49.902;8.596;2023-03-02T09:49:17;6.20;55.00
6738;DHT22;3406;49.902;8.596;2023-03-02T09:51:54;6.30;54.90
6738;DHT22;3406;49.902;8.596;2023-03-02T09:54:25;6.40;54.80
6738;DHT22;3406;49.902;8.596;2023-03-02T09:56:54;6.50;54.70
6738;DHT22;3406;49.902;8.596;2023-03-02T09:59:25;6.60;54.60
6738;DHT22;3406;49.902;8.596;2023-03-02T10:01:58;6.60;54.50
6738;DHT22;3406;49.902;8.596;2023-03-02T10:04:28;6.70;54.40
6738;DHT22;3406;49.902;8.596;2023-03-02T10:07:04;6.70;54.20
6738;DHT22;3406;49.902;8.596;2023-03-02T10:09:36;6.80;54.30
6738;DHT22;3406;49.902;8.596;2023-03-02T10:12:27;6.80;54.00
6738;DHT22;3406;49.902;8.596;2023-03-02T10:15:03;6.90;53.90
6738;DHT22;3406;49.902;8.596;2023-03-02T10:17:41;6.90;53.70
6738;DHT22;3406;49.902;8.596;2023-03-02T10:20:13;7.00;53.70
6738;DHT22;3406;49.902;8.596;2023-03-02T10:22:44;7.00;53.60
6738;DHT22;3406;49.902;8.596;2023-03-02T10:25:20;7.10;53.60
6738;DHT22;3406;49.902;8.596;2023-03-02T10:27:50;7.20;53.50
6738;DHT22;3406;49.902;8.596;2023-03-02T10:30:20;7.30;53.40
6738;DHT22;3406;49.902;8.596;2023-03-02T10:32:54;7.30;53.30
6738;DHT22;3406;49.902;8.596;2023-03-02T10:35:25;7.40;53.30
6738;DHT22;3406;49.902;8.596;2023-03-02T10:37:57;7.40;53.20
6738;DHT22;3406;49.902;8.596;2023-03-02T10:40:38;7.60;53.20
6738;DHT22;3406;49.902;8.596;2023-03-02T10:43:12;7.70;53.20
6738;DHT22;3406;49.902;8.596;2023-03-02T10:45:39;7.70;53.00
6738;DHT22;3406;49.902;8.596;2023-03-02T10:48:09;7.80;52.90
6738;DHT22;3406;49.902;8.596;2023-03-02T10:50:36;7.90;53.40
6738;DHT22;3406;49.902;8.596;2023-03-02T10:53:06;8.00;52.90
6738;DHT22;3406;49.902;8.596;2023-03-02T10:55:33;8.10;52.80
6738;DHT22;3406;49.902;8.596;2023-03-02T10:58:02;8.20;52.70
6738;DHT22;3406;49.902;8.596;2023-03-02T11:00:31;8.30;52.70
6738;DHT22;3406;49.902;8.596;2023-03-02T11:03:00;8.30;52.50
6738;DHT22;3406;49.902;8.596;2023-03-02T11:05:33;8.40;52.40
6738;DHT22;3406;49.902;8.596;2023-03-02T11:08:02;8.50;52.50
6738;DHT22;3406;49.902;8.596;2023-03-02T11:10:31;8.60;52.30
6738;DHT22;3406;49.902;8.596;2023-03-02T11:12:59;8.60;52.20
6738;DHT22;3406;49.902;8.596;2023-03-02T11:15:33;8.70;52.00
6738;DHT22;3406;49.902;8.596;2023-03-02T11:18:05;8.80;51.90
6738;DHT22;3406;49.902;8.596;2023-03-02T11:20:35;8.90;51.90
6738;DHT22;3406;49.902;8.596;2023-03-02T11:23:18;8.90;51.80
6738;DHT22;3406;49.902;8.596;2023-03-02T11:25:51;9.00;51.60
6738;DHT22;3406;49.902;8.596;2023-03-02T11:28:39;9.10;51.50
6738;DHT22;3406;49.902;8.596;2023-03-02T11:31:14;9.10;52.00
6738;DHT22;3406;49.902;8.596;2023-03-02T11:33:45;9.20;51.50
6738;DHT22;3406;49.902;8.596;2023-03-02T11:36:17;9.30;51.30
6738;DHT22;3406;49.902;8.596;2023-03-02T11:38:47;9.40;51.10
6738;DHT22;3406;49.902;8.596;2023-03-02T11:41:26;9.50;51.10
6738;DHT22;3406;49.902;8.596;2023-03-02T11:43:54;9.60;50.90
6738;DHT22;3406;49.902;8.596;2023-03-02T11:46:23;9.60;51.10
6738;DHT22;3406;49.902;8.596;2023-03-02T11:48:52;9.70;50.60
6738;DHT22;3406;49.902;8.596;2023-03-02T11:51:23;9.70;50.50
6738;DHT22;3406;49.902;8.596;2023-03-02T11:53:56;9.70;50.50
6738;DHT22;3406;49.902;8.596;2023-03-02T11:56:27;9.80;50.50
6738;DHT22;3406;49.902;8.596;2023-03-02T11:58:58;9.90;50.50
6738;DHT22;3406;49.902;8.596;2023-03-02T12:01:26;9.90;50.10
6738;DHT22;3406;49.902;8.596;2023-03-02T12:04:04;9.90;50.20
6738;DHT22;3406;49.902;8.596;2023-03-02T12:06:38;10.00;49.40
6738;DHT22;3406;49.902;8.596;2023-03-02T12:09:25;10.00;49.30
6738;DHT22;3406;49.902;8.596;2023-03-02T12:11:57;10.10;49.10
6738;DHT22;3406;49.902;8.596;2023-03-02T12:14:27;10.20;48.90
6738;DHT22;3406;49.902;8.596;2023-03-02T12:17:04;10.20;48.90
6738;DHT22;3406;49.902;8.596;2023-03-02T12:19:39;10.30;48.90
6738;DHT22;3406;49.902;8.596;2023-03-02T12:22:09;10.40;48.90
6738;DHT22;3406;49.902;8.596;2023-03-02T12:24:40;10.40;48.90
6738;DHT22;3406;49.902;8.596;2023-03-02T12:27:23;10.50;48.90
6738;DHT22;3406;49.902;8.596;2023-03-02T12:29:55;10.60;48.90
6738;DHT22;3406;49.902;8.596;2023-03-02T12:32:24;10.60;48.80
6738;DHT22;3406;49.902;8.596;2023-03-02T12:34:54;10.70;48.90
6738;DHT22;3406;49.902;8.596;2023-03-02T12:37:25;10.80;48.90
6738;DHT22;3406;49.902;8.596;2023-03-02T12:40:19;10.80;48.70
6738;DHT22;3406;49.902;8.596;2023-03-02T12:43:00;10.90;48.80
6738;DHT22;3406;49.902;8.596;2023-03-02T12:45:44;11.00;48.80
6738;DHT22;3406;49.902;8.596;2023-03-02T12:48:23;11.00;48.60
6738;DHT22;3406;49.902;8.596;2023-03-02T12:50:53;11.10;48.60
6738;DHT22;3406;49.902;8.596;2023-03-02T12:53:22;11.20;48.60
6738;DHT22;3406;49.902;8.596;2023-03-02T12:55:48;11.20;48.60
6738;DHT22;3406;49.902;8.596;2023-03-02T12:58:18;11.30;48.50
6738;DHT22;3406;49.902;8.596;2023-03-02T13:00:49;11.40;48.50
6738;DHT22;3406;49.902;8.596;2023-03-02T13:03:16;11.40;48.40
6738;DHT22;3406;49.902;8.596;2023-03-02T13:05:43;11.50;48.30
6738;DHT22;3406;49.902;8.596;2023-03-02T13:08:15;11.50;48.20
6738;DHT22;3406;49.902;8.596;2023-03-02T13:10:47;11.60;48.10
6738;DHT22;3406;49.902;8.596;2023-03-02T13:13:17;11.60;48.20
6738;DHT22;3406;49.902;8.596;2023-03-02T13:15:49;11.70;48.10
6738;DHT22;3406;49.902;8.596;2023-03-02T13:18:16;11.70;47.90
6738;DHT22;3406;49.902;8.596;2023-03-02T13:20:43;11.70;47.90
6738;DHT22;3406;49.902;8.596;2023-03-02T13:23:12;11.80;47.80
6738;DHT22;3406;49.902;8.596;2023-03-02T13:25:48;11.80;47.70
6738;DHT22;3406;49.902;8.596;2023-03-02T13:28:24;11.90;47.70
6738;DHT22;3406;49.902;8.596;2023-03-02T13:30:55;11.90;47.60
6738;DHT22;3406;49.902;8.596;2023-03-02T13:33:23;11.90;47.50
6738;DHT22;3406;49.902;8.596;2023-03-02T13:35:50;11.90;47.40
6738;DHT22;3406;49.902;8.596;2023-03-02T13:38:18;12.00;47.40
6738;DHT22;3406;49.902;8.596;2023-03-02T13:40:49;12.10;47.40
6738;DHT22;3406;49.902;8.596;2023-03-02T13:43:21;12.10;47.30
6738;DHT22;3406;49.902;8.596;2023-03-02T13:45:53;12.10;47.20
6738;DHT22;3406;49.902;8.596;2023-03-02T13:48:20;12.10;47.00
6738;DHT22;3406;49.902;8.596;2023-03-02T13:50:53;12.10;47.00
6738;DHT22;3406;49.902;8.596;2023-03-02T13:53:20;12.10;46.90
6738;DHT22;3406;49.902;8.596;2023-03-02T13:55:51;12.20;46.80
6738;DHT22;3406;49.902;8.596;2023-03-02T13:58:19;12.20;46.70
6738;DHT22;3406;49.902;8.596;2023-03-02T14:00:46;12.20;46.70
6738;DHT22;3406;49.902;8.596;2023-03-02T14:03:22;12.30;46.60
6738;DHT22;3406;49.902;8.596;2023-03-02T14:05:49;12.30;46.60
6738;DHT22;3406;49.902;8.596;2023-03-02T14:08:16;12.30;46.50
6738;DHT22;3406;49.902;8.596;2023-03-02T14:10:42;12.40;46.40
6738;DHT22;3406;49.902;8.596;2023-03-02T14:13:13;12.40;46.30
6738;DHT22;3406;49.902;8.596;2023-03-02T14:15:42;12.40;46.20
6738;DHT22;3406;49.902;8.596;2023-03-02T14:18:25;12.40;46.20
6738;DHT22;3406;49.902;8.596;2023-03-02T14:20:52;12.40;46.10
6738;DHT22;3406;49.902;8.596;2023-03-02T14:23:19;12.50;45.80
6738;DHT22;3406;49.902;8.596;2023-03-02T14:25:46;12.40;45.40
6738;DHT22;3406;49.902;8.596;2023-03-02T14:28:19;12.40;45.50
6738;DHT22;3406;49.902;8.596;2023-03-02T14:30:48;12.50;45.40
6738;DHT22;3406;49.902;8.596;2023-03-02T14:33:18;12.50;45.40
6738;DHT22;3406;49.902;8.596;2023-03-02T14:35:45;12.60;45.40
6738;DHT22;3406;49.902;8.596;2023-03-02T14:38:13;12.60;45.40
6738;DHT22;3406;49.902;8.596;2023-03-02T14:40:39;12.60;45.20
6738;DHT22;3406;49.902;8.596;2023-03-02T14:43:07;12.70;45.10
6738;DHT22;3406;49.902;8.596;2023-03-02T14:45:35;12.70;45.10
6738;DHT22;3406;49.902;8.596;2023-03-02T14:48:02;12.70;44.90
6738;DHT22;3406;49.902;8.596;2023-03-02T14:50:29;12.60;44.70
6738;DHT22;3406;49.902;8.596;2023-03-02T14:52:56;12.60;44.70
6738;DHT22;3406;49.902;8.596;2023-03-02T14:57:52;12.60;44.80
6738;DHT22;3406;49.902;8.596;2023-03-02T15:00:20;12.70;44.90
6738;DHT22;3406;49.902;8.596;2023-03-02T15:02:48;12.70;44.90
6738;DHT22;3406;49.902;8.596;2023-03-02T15:05:15;12.70;44.60
6738;DHT22;3406;49.902;8.596;2023-03-02T15:07:42;12.70;44.40
6738;DHT22;3406;49.902;8.596;2023-03-02T15:10:12;12.70;44.50
6738;DHT22;3406;49.902;8.596;2023-03-02T15:12:39;12.80;44.50
6738;DHT22;3406;49.902;8.596;2023-03-02T15:15:06;12.80;44.50
6738;DHT22;3406;49.902;8.596;2023-03-02T15:17:33;12.80;44.50
6738;DHT22;3406;49.902;8.596;2023-03-02T15:20:01;12.90;44.70
6738;DHT22;3406;49.902;8.596;2023-03-02T15:22:28;12.90;44.70
6738;DHT22;3406;49.902;8.596;2023-03-02T15:24:54;12.90;44.80
6738;DHT22;3406;49.902;8.596;2023-03-02T15:27:21;12.90;44.90
6738;DHT22;3406;49.902;8.596;2023-03-02T15:29:48;12.90;45.00
6738;DHT22;3406;49.902;8.596;2023-03-02T15:32:15;12.90;45.00
6738;DHT22;3406;49.902;8.596;2023-03-02T15:34:42;12.90;45.10
6738;DHT22;3406;49.902;8.596;2023-03-02T15:37:11;12.90;45.10
6738;DHT22;3406;49.902;8.596;2023-03-02T15:39:37;12.90;45.20
6738;DHT22;3406;49.902;8.596;2023-03-02T15:42:05;12.90;45.10
6738;DHT22;3406;49.902;8.596;2023-03-02T15:44:32;12.90;45.20
6738;DHT22;3406;49.902;8.596;2023-03-02T15:46:59;12.80;45.20
6738;DHT22;3406;49.902;8.596;2023-03-02T15:49:26;12.90;45.30
6738;DHT22;3406;49.902;8.596;2023-03-02T15:51:54;12.80;45.30
6738;DHT22;3406;49.902;8.596;2023-03-02T15:54:23;12.80;45.30
6738;DHT22;3406;49.902;8.596;2023-03-02T15:56:50;12.70;45.40
6738;DHT22;3406;49.902;8.596;2023-03-02T15:59:17;12.70;45.40
6738;DHT22;3406;49.902;8.596;2023-03-02T16:01:44;12.70;45.50
6738;DHT22;3406;49.902;8.596;2023-03-02T16:04:11;12.70;45.60
6738;DHT22;3406;49.902;8.596;2023-03-02T16:06:37;12.60;45.60
6738;DHT22;3406;49.902;8.596;2023-03-02T16:09:04;12.60;45.70
6738;DHT22;3406;49.902;8.596;2023-03-02T16:11:32;12.50;45.60
6738;DHT22;3406;49.902;8.596;2023-03-02T16:13:59;12.50;45.70
6738;DHT22;3406;49.902;8.596;2023-03-02T16:16:26;12.40;45.70
6738;DHT22;3406;49.902;8.596;2023-03-02T16:18:54;12.30;45.70
6738;DHT22;3406;49.902;8.596;2023-03-02T16:21:21;12.20;45.80
6738;DHT22;3406;49.902;8.596;2023-03-02T16:23:48;12.10;45.80
6738;DHT22;3406;49.902;8.596;2023-03-02T16:26:19;12.00;45.90
6738;DHT22;3406;49.902;8.596;2023-03-02T16:28:47;11.90;45.90
6738;DHT22;3406;49.902;8.596;2023-03-02T16:31:16;11.80;45.90